Terminal Aerodrome Forecast
Issued by NWS State College, PA

Home | Current Version | Previous Version | Text Only | Print | Product List | Glossary On
Versions: 1 2 3 4 5 6 7 8 9 10 11 12 13 14 15 16 17 18 19 20 21 22 23 24 25 26 27 28 29 30 31 32 33 34 35
000
FTUS41 KCTP 221846 AAB
TAFIPT
TAF AMD
KIPT 221846Z 2219/2318 10007KT P6SM BKN015
     FM222000 15006KT P6SM SCT015 BKN025
     FM222100 16006KT P6SM SCT025
     FM230100 VRB03KT P6SM SCT250=

USA.gov is the U.S. government's official web portal to all federal, state and local government web resources and services.